Terminal Aerodrome Forecast
Issued by NWS

Home | Current Version | Previous Version | Text Only | Print | Product List | Glossary Off
Versions: 1 2 3 4 5 6 7 8 9 10 11 12 13 14 15

827
FTUS43 KABR 142321
TAFMBG
TAF
KMBG 142321Z 1500/1524 34012KT P6SM SKC
     FM150300 33006KT P6SM FEW250
     FM150700 27005KT P6SM SKC
     FM151400 27009KT P6SM FEW200
     FM151800 29013KT P6SM FEW250=

USA.gov is the U.S. government's official web portal to all federal, state and local government web resources and services.